Terminal Aerodrome Forecast
Issued by NWS Billings, MT

Home | Current Version | Previous Version | Graphics & Text | Print | Product List | Glossary On
Versions: 1 2 3 4 5 6 7 8 9 10 11 12 13 14 15 16 17 18 19 20 21
000
FTUS45 KBYZ 190026 AAA
TAFMLS
TAF AMD
KMLS 190026Z 1900/1924 04013KT 5SM -RA BR SCT008 BKN014 OVC019
      TEMPO 1900/1904 3SM -RA BR BKN010
     FM190800 07012KT P6SM VCSH FEW015 BKN050
     FM191500 10013KT P6SM BKN060=

USA.gov is the U.S. government's official web portal to all federal, state and local government web resources and services.